sensor_id;sensor_type;location;lat;lon;timestamp;pressure;altitude;pressure_sealevel;temperature;humidity
3780;BME280;1905;52.482;9.802;2023-09-19T00:00:44;100070.97;;;18.68;81.27
3780;BME280;1905;52.482;9.802;2023-09-19T00:03:14;100071.22;;;18.65;81.12
3780;BME280;1905;52.482;9.802;2023-09-19T00:05:42;100072.94;;;18.66;81.06
3780;BME280;1905;52.482;9.802;2023-09-19T00:08:12;100075.00;;;18.62;80.93
3780;BME280;1905;52.482;9.802;2023-09-19T00:10:41;100085.84;;;18.61;80.52
3780;BME280;1905;52.482;9.802;2023-09-19T00:13:09;100088.19;;;18.54;80.97
3780;BME280;1905;52.482;9.802;2023-09-19T00:15:43;100092.69;;;18.54;81.20
3780;BME280;1905;52.482;9.802;2023-09-19T00:18:15;100084.66;;;18.54;81.29
3780;BME280;1905;52.482;9.802;2023-09-19T00:20:43;100095.91;;;18.48;81.49
3780;BME280;1905;52.482;9.802;2023-09-19T00:23:14;100094.19;;;18.47;81.23
3780;BME280;1905;52.482;9.802;2023-09-19T00:25:41;100093.72;;;18.41;81.31
3780;BME280;1905;52.482;9.802;2023-09-19T00:28:09;100085.72;;;18.41;81.44
3780;BME280;1905;52.482;9.802;2023-09-19T00:30:37;100090.59;;;18.36;81.73
3780;BME280;1905;52.482;9.802;2023-09-19T00:33:07;100085.97;;;18.38;81.19
3780;BME280;1905;52.482;9.802;2023-09-19T00:35:34;100082.59;;;18.36;81.79
3780;BME280;1905;52.482;9.802;2023-09-19T00:38:03;100092.09;;;18.29;82.34
3780;BME280;1905;52.482;9.802;2023-09-19T00:40:33;100088.25;;;18.22;82.89
3780;BME280;1905;52.482;9.802;2023-09-19T00:43:02;100084.47;;;18.25;82.02
3780;BME280;1905;52.482;9.802;2023-09-19T00:45:30;100088.72;;;18.27;81.53
3780;BME280;1905;52.482;9.802;2023-09-19T00:48:01;100093.19;;;18.27;81.44
3780;BME280;1905;52.482;9.802;2023-09-19T00:50:31;100100.75;;;18.22;81.78
3780;BME280;1905;52.482;9.802;2023-09-19T00:52:59;100096.06;;;18.14;82.28
3780;BME280;1905;52.482;9.802;2023-09-19T00:55:28;100099.34;;;18.18;82.11
3780;BME280;1905;52.482;9.802;2023-09-19T00:57:59;100105.19;;;18.12;82.29
3780;BME280;1905;52.482;9.802;2023-09-19T01:00:28;100109.44;;;18.14;82.21
3780;BME280;1905;52.482;9.802;2023-09-19T01:02:57;100107.72;;;18.13;82.47
3780;BME280;1905;52.482;9.802;2023-09-19T01:05:24;100119.66;;;18.09;81.81
3780;BME280;1905;52.482;9.802;2023-09-19T01:07:54;100113.63;;;18.07;82.67
3780;BME280;1905;52.482;9.802;2023-09-19T01:10:21;100122.34;;;18.09;81.78
3780;BME280;1905;52.482;9.802;2023-09-19T01:12:55;100131.56;;;18.05;82.94
3780;BME280;1905;52.482;9.802;2023-09-19T01:15:39;100125.31;;;17.95;82.72
3780;BME280;1905;52.482;9.802;2023-09-19T01:18:16;100119.25;;;17.93;83.08
3780;BME280;1905;52.482;9.802;2023-09-19T01:20:57;100130.41;;;17.98;82.13
3780;BME280;1905;52.482;9.802;2023-09-19T01:23:43;100125.78;;;18.00;82.08
3780;BME280;1905;52.482;9.802;2023-09-19T01:26:30;100142.91;;;17.98;82.52
3780;BME280;1905;52.482;9.802;2023-09-19T01:29:23;100139.63;;;17.94;82.42
3780;BME280;1905;52.482;9.802;2023-09-19T01:32:03;100146.69;;;17.95;81.90
3780;BME280;1905;52.482;9.802;2023-09-19T01:34:43;100137.56;;;17.98;82.01
3780;BME280;1905;52.482;9.802;2023-09-19T01:37:13;100146.69;;;17.95;81.81
3780;BME280;1905;52.482;9.802;2023-09-19T01:39:46;100151.19;;;17.95;82.10
3780;BME280;1905;52.482;9.802;2023-09-19T01:42:23;100154.94;;;17.92;82.47
3780;BME280;1905;52.482;9.802;2023-09-19T01:44:57;100157.16;;;17.87;83.12
3780;BME280;1905;52.482;9.802;2023-09-19T01:47:32;100151.09;;;17.85;82.96
3780;BME280;1905;52.482;9.802;2023-09-19T01:50:11;100162.63;;;17.85;82.68
3780;BME280;1905;52.482;9.802;2023-09-19T01:52:51;100159.84;;;17.87;81.75
3780;BME280;1905;52.482;9.802;2023-09-19T01:55:22;100156.09;;;17.78;83.51
3780;BME280;1905;52.482;9.802;2023-09-19T01:58:00;100159.84;;;17.76;83.64
3780;BME280;1905;52.482;9.802;2023-09-19T02:00:32;100158.91;;;17.77;82.68
3780;BME280;1905;52.482;9.802;2023-09-19T02:03:03;100152.22;;;17.82;81.88
3780;BME280;1905;52.482;9.802;2023-09-19T02:05:32;100158.38;;;17.83;82.24
3780;BME280;1905;52.482;9.802;2023-09-19T02:07:59;100164.56;;;17.83;81.98
3780;BME280;1905;52.482;9.802;2023-09-19T02:10:27;100163.25;;;17.78;83.13
3780;BME280;1905;52.482;9.802;2023-09-19T02:12:59;100155.22;;;17.78;82.35
3780;BME280;1905;52.482;9.802;2023-09-19T02:15:27;100164.25;;;17.77;82.40
3780;BME280;1905;52.482;9.802;2023-09-19T02:17:54;100180.03;;;17.80;82.14
3780;BME280;1905;52.482;9.802;2023-09-19T02:20:24;100167.16;;;17.74;82.49
3780;BME280;1905;52.482;9.802;2023-09-19T02:22:52;100169.69;;;17.75;82.49
3780;BME280;1905;52.482;9.802;2023-09-19T02:25:20;100176.34;;;17.81;81.95
3780;BME280;1905;52.482;9.802;2023-09-19T02:27:48;100170.69;;;17.74;82.23
3780;BME280;1905;52.482;9.802;2023-09-19T02:30:16;100180.63;;;17.72;82.46
3780;BME280;1905;52.482;9.802;2023-09-19T02:32:46;100183.44;;;17.71;82.53
3780;BME280;1905;52.482;9.802;2023-09-19T02:35:16;100185.09;;;17.72;81.98
3780;BME280;1905;52.482;9.802;2023-09-19T02:37:47;100200.66;;;17.67;82.87
3780;BME280;1905;52.482;9.802;2023-09-19T02:40:15;100194.75;;;17.63;82.46
3780;BME280;1905;52.482;9.802;2023-09-19T02:42:46;100191.44;;;17.71;81.93
3780;BME280;1905;52.482;9.802;2023-09-19T02:45:16;100186.34;;;17.68;82.62
3780;BME280;1905;52.482;9.802;2023-09-19T02:47:44;100193.03;;;17.62;82.58
3780;BME280;1905;52.482;9.802;2023-09-19T02:50:13;100183.19;;;17.63;82.57
3780;BME280;1905;52.482;9.802;2023-09-19T02:52:42;100182.34;;;17.62;82.69
3780;BME280;1905;52.482;9.802;2023-09-19T02:55:12;100195.56;;;17.64;82.48
3780;BME280;1905;52.482;9.802;2023-09-19T02:57:40;100190.84;;;17.67;82.17
3780;BME280;1905;52.482;9.802;2023-09-19T03:00:11;100197.28;;;17.65;82.48
3780;BME280;1905;52.482;9.802;2023-09-19T03:02:39;100197.28;;;17.65;81.91
3780;BME280;1905;52.482;9.802;2023-09-19T03:05:08;100201.66;;;17.66;81.99
3780;BME280;1905;52.482;9.802;2023-09-19T03:07:38;100208.19;;;17.62;82.20
3780;BME280;1905;52.482;9.802;2023-09-19T03:10:07;100202.00;;;17.61;82.27
3780;BME280;1905;52.482;9.802;2023-09-19T03:12:36;100203.56;;;17.64;81.70
3780;BME280;1905;52.482;9.802;2023-09-19T03:15:07;100211.59;;;17.64;81.65
3780;BME280;1905;52.482;9.802;2023-09-19T03:17:36;100208.91;;;17.64;81.64
3780;BME280;1905;52.482;9.802;2023-09-19T03:20:05;100217.78;;;17.64;81.49
3780;BME280;1905;52.482;9.802;2023-09-19T03:22:35;100210.88;;;17.62;81.82
3780;BME280;1905;52.482;9.802;2023-09-19T03:25:04;100225.69;;;17.66;81.39
3780;BME280;1905;52.482;9.802;2023-09-19T03:27:37;100228.72;;;17.61;81.58
3780;BME280;1905;52.482;9.802;2023-09-19T03:30:07;100235.75;;;17.62;82.17
3780;BME280;1905;52.482;9.802;2023-09-19T03:32:36;100234.06;;;17.61;81.78
3780;BME280;1905;52.482;9.802;2023-09-19T03:35:05;100228.13;;;17.58;81.92
3780;BME280;1905;52.482;9.802;2023-09-19T03:37:34;100235.53;;;17.54;82.08
3780;BME280;1905;52.482;9.802;2023-09-19T03:40:02;100237.78;;;17.48;82.53
3780;BME280;1905;52.482;9.802;2023-09-19T03:42:32;100234.78;;;17.52;81.74
3780;BME280;1905;52.482;9.802;2023-09-19T03:45:04;100236.81;;;17.49;82.14
3780;BME280;1905;52.482;9.802;2023-09-19T03:47:33;100234.16;;;17.49;81.61
3780;BME280;1905;52.482;9.802;2023-09-19T03:50:03;100239.97;;;17.43;81.66
3780;BME280;1905;52.482;9.802;2023-09-19T03:52:30;100237.53;;;17.40;81.83
3780;BME280;1905;52.482;9.802;2023-09-19T03:54:58;100241.69;;;17.44;81.17
3780;BME280;1905;52.482;9.802;2023-09-19T03:57:26;100246.41;;;17.40;81.72
3780;BME280;1905;52.482;9.802;2023-09-19T03:59:53;100241.31;;;17.37;81.63
3780;BME280;1905;52.482;9.802;2023-09-19T04:02:23;100244.72;;;17.39;81.34
3780;BME280;1905;52.482;9.802;2023-09-19T04:04:52;100239.88;;;17.33;81.20
3780;BME280;1905;52.482;9.802;2023-09-19T04:07:19;100242.41;;;17.35;81.47
3780;BME280;1905;52.482;9.802;2023-09-19T04:09:49;100240.72;;;17.34;81.75
3780;BME280;1905;52.482;9.802;2023-09-19T04:12:16;100238.28;;;17.31;81.36
3780;BME280;1905;52.482;9.802;2023-09-19T04:14:44;100241.69;;;17.33;80.83
3780;BME280;1905;52.482;9.802;2023-09-19T04:17:12;100231.97;;;17.32;80.77
3780;BME280;1905;52.482;9.802;2023-09-19T04:19:42;100230.28;;;17.31;80.85
3780;BME280;1905;52.482;9.802;2023-09-19T04:22:12;100235.63;;;17.31;81.24
3780;BME280;1905;52.482;9.802;2023-09-19T04:24:40;100247.25;;;17.30;80.49
3780;BME280;1905;52.482;9.802;2023-09-19T04:27:08;100251.63;;;17.31;80.51
3780;BME280;1905;52.482;9.802;2023-09-19T04:29:36;100256.34;;;17.27;80.31
3780;BME280;1905;52.482;9.802;2023-09-19T04:32:04;100266.19;;;17.26;80.48
3780;BME280;1905;52.482;9.802;2023-09-19T04:34:32;100265.31;;;17.26;80.75
3780;BME280;1905;52.482;9.802;2023-09-19T04:37:02;100263.03;;;17.21;80.36
3780;BME280;1905;52.482;9.802;2023-09-19T04:39:30;100263.03;;;17.21;80.60
3780;BME280;1905;52.482;9.802;2023-09-19T04:41:57;100273.22;;;17.16;80.02
3780;BME280;1905;52.482;9.802;2023-09-19T04:44:26;100280.25;;;17.17;80.50
3780;BME280;1905;52.482;9.802;2023-09-19T04:46:54;100284.75;;;17.17;80.00
3780;BME280;1905;52.482;9.802;2023-09-19T04:49:22;100290.19;;;17.15;80.03
3780;BME280;1905;52.482;9.802;2023-09-19T04:51:50;100292.97;;;17.14;79.95
3780;BME280;1905;52.482;9.802;2023-09-19T04:54:19;100287.00;;;17.10;80.40
3780;BME280;1905;52.482;9.802;2023-09-19T04:56:47;100292.47;;;17.09;79.93
3780;BME280;1905;52.482;9.802;2023-09-19T04:59:14;100287.25;;;17.07;80.17
3780;BME280;1905;52.482;9.802;2023-09-19T05:01:42;100295.47;;;17.04;80.86
3780;BME280;1905;52.482;9.802;2023-09-19T05:04:10;100294.53;;;17.05;79.80
3780;BME280;1905;52.482;9.802;2023-09-19T05:06:38;100278.66;;;17.04;79.62
3780;BME280;1905;52.482;9.802;2023-09-19T05:09:05;100288.47;;;17.03;80.02
3780;BME280;1905;52.482;9.802;2023-09-19T05:11:36;100272.19;;;16.95;80.12
3780;BME280;1905;52.482;9.802;2023-09-19T05:14:04;100274.00;;;16.95;80.63
3780;BME280;1905;52.482;9.802;2023-09-19T05:16:32;100282.09;;;16.93;80.69
3780;BME280;1905;52.482;9.802;2023-09-19T05:19:01;100272.44;;;16.92;80.43
3780;BME280;1905;52.482;9.802;2023-09-19T05:21:30;100285.28;;;16.87;80.44
3780;BME280;1905;52.482;9.802;2023-09-19T05:23:57;100291.34;;;16.89;80.50
3780;BME280;1905;52.482;9.802;2023-09-19T05:26:25;100306.47;;;16.89;80.49
3780;BME280;1905;52.482;9.802;2023-09-19T05:28:54;100302.38;;;16.85;80.86
3780;BME280;1905;52.482;9.802;2023-09-19T05:31:21;100312.19;;;16.84;80.67
3780;BME280;1905;52.482;9.802;2023-09-19T05:33:50;100311.44;;;16.82;80.97
3780;BME280;1905;52.482;9.802;2023-09-19T05:36:17;100314.56;;;16.76;81.47
3780;BME280;1905;52.482;9.802;2023-09-19T05:38:45;100312.84;;;16.75;81.43
3780;BME280;1905;52.482;9.802;2023-09-19T05:41:16;100325.91;;;16.67;81.76
3780;BME280;1905;52.482;9.802;2023-09-19T05:43:44;100324.25;;;16.77;80.96
3780;BME280;1905;52.482;9.802;2023-09-19T05:46:13;100337.59;;;16.77;81.28
3780;BME280;1905;52.482;9.802;2023-09-19T05:48:42;100334.41;;;16.72;81.32
3780;BME280;1905;52.482;9.802;2023-09-19T05:51:36;100348.75;;;16.71;81.53
3780;BME280;1905;52.482;9.802;2023-09-19T05:54:03;100362.66;;;16.75;81.00
3780;BME280;1905;52.482;9.802;2023-09-19T05:56:31;100379.75;;;16.72;80.88
3780;BME280;1905;52.482;9.802;2023-09-19T05:58:59;100382.66;;;16.69;81.11
3780;BME280;1905;52.482;9.802;2023-09-19T06:01:28;100380.84;;;16.70;81.28
3780;BME280;1905;52.482;9.802;2023-09-19T06:03:57;100375.72;;;16.66;80.76
3780;BME280;1905;52.482;9.802;2023-09-19T06:06:26;100372.75;;;16.71;81.25
3780;BME280;1905;52.482;9.802;2023-09-19T06:08:54;100371.75;;;16.72;80.59
3780;BME280;1905;52.482;9.802;2023-09-19T06:11:21;100375.16;;;16.74;80.46
3780;BME280;1905;52.482;9.802;2023-09-19T06:13:53;100378.69;;;16.75;80.12
3780;BME280;1905;52.482;9.802;2023-09-19T06:16:20;100380.75;;;16.71;80.56
3780;BME280;1905;52.482;9.802;2023-09-19T06:18:49;100382.88;;;16.66;80.78
3780;BME280;1905;52.482;9.802;2023-09-19T06:21:19;100390.66;;;16.69;80.62
3780;BME280;1905;52.482;9.802;2023-09-19T06:23:46;100390.41;;;16.72;80.15
3780;BME280;1905;52.482;9.802;2023-09-19T06:26:14;100380.75;;;16.71;80.16
3780;BME280;1905;52.482;9.802;2023-09-19T06:28:42;100378.50;;;16.65;80.76
3780;BME280;1905;52.482;9.802;2023-09-19T06:31:10;100374.88;;;16.66;80.40
3780;BME280;1905;52.482;9.802;2023-09-19T06:33:39;100374.13;;;16.64;80.12
3780;BME280;1905;52.482;9.802;2023-09-19T06:36:08;100367.13;;;16.63;80.53
3780;BME280;1905;52.482;9.802;2023-09-19T06:38:36;100371.59;;;16.62;80.74
3780;BME280;1905;52.482;9.802;2023-09-19T06:41:05;100370.97;;;16.59;80.38
3780;BME280;1905;52.482;9.802;2023-09-19T06:43:34;100370.09;;;16.58;80.49
3780;BME280;1905;52.482;9.802;2023-09-19T06:46:02;100379.91;;;16.58;80.45
3780;BME280;1905;52.482;9.802;2023-09-19T06:48:30;100369.78;;;16.63;80.03
3780;BME280;1905;52.482;9.802;2023-09-19T06:50:59;100366.13;;;16.64;79.97
3780;BME280;1905;52.482;9.802;2023-09-19T06:53:32;100386.00;;;16.60;79.69
3780;BME280;1905;52.482;9.802;2023-09-19T06:56:02;100389.28;;;16.63;79.98
3780;BME280;1905;52.482;9.802;2023-09-19T06:58:30;100394.22;;;16.57;80.33
3780;BME280;1905;52.482;9.802;2023-09-19T07:00:58;100393.38;;;16.56;79.14
3780;BME280;1905;52.482;9.802;2023-09-19T07:03:26;100404.16;;;16.55;79.47
3780;BME280;1905;52.482;9.802;2023-09-19T07:05:55;100404.97;;;16.55;79.29
3780;BME280;1905;52.482;9.802;2023-09-19T07:08:25;100390.81;;;16.55;79.96
3780;BME280;1905;52.482;9.802;2023-09-19T07:10:56;100404.88;;;16.57;78.97
3780;BME280;1905;52.482;9.802;2023-09-19T07:13:23;100401.50;;;16.55;78.99
3780;BME280;1905;52.482;9.802;2023-09-19T07:15:51;100402.63;;;16.51;79.22
3780;BME280;1905;52.482;9.802;2023-09-19T07:18:20;100406.56;;;16.58;78.54
3780;BME280;1905;52.482;9.802;2023-09-19T07:20:48;100394.22;;;16.57;77.64
3780;BME280;1905;52.482;9.802;2023-09-19T07:23:17;100395.91;;;16.58;79.14
3780;BME280;1905;52.482;9.802;2023-09-19T07:25:45;100417.03;;;16.61;78.16
3780;BME280;1905;52.482;9.802;2023-09-19T07:28:15;100417.16;;;16.59;78.88
3780;BME280;1905;52.482;9.802;2023-09-19T07:30:43;100425.16;;;16.59;78.88
3780;BME280;1905;52.482;9.802;2023-09-19T07:33:10;100428.53;;;16.61;77.73
3780;BME280;1905;52.482;9.802;2023-09-19T07:35:38;100424.16;;;16.60;78.31
3780;BME280;1905;52.482;9.802;2023-09-19T07:38:07;100427.69;;;16.61;77.92
3780;BME280;1905;52.482;9.802;2023-09-19T07:40:35;100427.69;;;16.61;77.80
3780;BME280;1905;52.482;9.802;2023-09-19T07:43:03;100433.88;;;16.61;78.26
3780;BME280;1905;52.482;9.802;2023-09-19T07:45:32;100436.44;;;16.63;77.41
3780;BME280;1905;52.482;9.802;2023-09-19T07:48:00;100451.69;;;16.61;77.67
3780;BME280;1905;52.482;9.802;2023-09-19T07:50:32;100453.41;;;16.62;76.69
3780;BME280;1905;52.482;9.802;2023-09-19T07:53:00;100454.34;;;16.61;77.01
3780;BME280;1905;52.482;9.802;2023-09-19T07:55:31;100443.59;;;16.62;77.01
3780;BME280;1905;52.482;9.802;2023-09-19T07:58:00;100460.19;;;16.66;77.16
3780;BME280;1905;52.482;9.802;2023-09-19T08:00:30;100453.69;;;16.70;77.26
3780;BME280;1905;52.482;9.802;2023-09-19T08:03:00;100448.38;;;16.70;76.82
3780;BME280;1905;52.482;9.802;2023-09-19T08:05:38;100450.09;;;16.71;76.36
3780;BME280;1905;52.482;9.802;2023-09-19T08:08:09;100448.16;;;16.73;76.11
3780;BME280;1905;52.482;9.802;2023-09-19T08:10:41;100451.53;;;16.75;76.62
3780;BME280;1905;52.482;9.802;2023-09-19T08:13:12;100449.38;;;16.80;75.89
3780;BME280;1905;52.482;9.802;2023-09-19T08:15:43;100438.72;;;16.80;75.60
3780;BME280;1905;52.482;9.802;2023-09-19T08:18:13;100450.97;;;16.83;75.53
3780;BME280;1905;52.482;9.802;2023-09-19T08:20:40;100452.56;;;16.85;74.43
3780;BME280;1905;52.482;9.802;2023-09-19T08:23:09;100447.00;;;16.88;75.95
3780;BME280;1905;52.482;9.802;2023-09-19T08:25:36;100446.78;;;16.91;75.66
3780;BME280;1905;52.482;9.802;2023-09-19T08:28:05;100449.38;;;16.93;76.06
3780;BME280;1905;52.482;9.802;2023-09-19T08:30:35;100452.63;;;16.96;75.75
3780;BME280;1905;52.482;9.802;2023-09-19T08:33:07;100446.13;;;17.00;75.03
3780;BME280;1905;52.482;9.802;2023-09-19T08:35:36;100454.63;;;17.05;75.25
3780;BME280;1905;52.482;9.802;2023-09-19T08:38:04;100455.88;;;17.12;74.99
3780;BME280;1905;52.482;9.802;2023-09-19T08:40:32;100459.31;;;17.14;74.02
3780;BME280;1905;52.482;9.802;2023-09-19T08:43:00;100452.25;;;17.13;73.78
3780;BME280;1905;52.482;9.802;2023-09-19T08:45:30;100448.50;;;17.16;74.45
3780;BME280;1905;52.482;9.802;2023-09-19T08:48:08;100460.31;;;17.24;74.33
3780;BME280;1905;52.482;9.802;2023-09-19T08:50:43;100447.06;;;17.23;74.05
3780;BME280;1905;52.482;9.802;2023-09-19T08:53:21;100451.09;;;17.28;73.56
3780;BME280;1905;52.482;9.802;2023-09-19T08:55:51;100462.31;;;17.34;73.43
3780;BME280;1905;52.482;9.802;2023-09-19T08:58:21;100461.09;;;17.38;73.71
3780;BME280;1905;52.482;9.802;2023-09-19T09:00:53;100468.75;;;17.42;73.52
3780;BME280;1905;52.482;9.802;2023-09-19T09:03:22;100470.84;;;17.50;72.78
3780;BME280;1905;52.482;9.802;2023-09-19T09:05:52;100483.03;;;17.54;72.64
3780;BME280;1905;52.482;9.802;2023-09-19T09:08:20;100477.69;;;17.54;72.95
3780;BME280;1905;52.482;9.802;2023-09-19T09:10:49;100475.75;;;17.56;72.61
3780;BME280;1905;52.482;9.802;2023-09-19T09:13:17;100475.50;;;17.59;72.67
3780;BME280;1905;52.482;9.802;2023-09-19T09:15:45;100469.47;;;17.68;72.81
3780;BME280;1905;52.482;9.802;2023-09-19T09:18:14;100474.81;;;17.68;72.25
3780;BME280;1905;52.482;9.802;2023-09-19T09:20:42;100473.09;;;17.67;72.92
3780;BME280;1905;52.482;9.802;2023-09-19T09:23:12;100465.59;;;17.72;72.41
3780;BME280;1905;52.482;9.802;2023-09-19T09:25:47;100476.53;;;17.69;71.96
3780;BME280;1905;52.482;9.802;2023-09-19T09:28:19;100490.63;;;17.71;71.05
3780;BME280;1905;52.482;9.802;2023-09-19T09:30:47;100478.00;;;17.73;71.33
3780;BME280;1905;52.482;9.802;2023-09-19T09:33:16;100476.03;;;17.75;70.99
3780;BME280;1905;52.482;9.802;2023-09-19T09:35:52;100488.94;;;17.81;70.95
3780;BME280;1905;52.482;9.802;2023-09-19T09:38:22;100483.50;;;17.82;71.51
3780;BME280;1905;52.482;9.802;2023-09-19T09:40:53;100480.69;;;17.84;71.95
3780;BME280;1905;52.482;9.802;2023-09-19T09:43:28;100481.41;;;17.86;71.67
3780;BME280;1905;52.482;9.802;2023-09-19T09:46:13;100481.91;;;17.91;71.38
3780;BME280;1905;52.482;9.802;2023-09-19T09:49:02;100479.75;;;17.96;71.17
3780;BME280;1905;52.482;9.802;2023-09-19T09:51:49;100491.91;;;18.00;71.45
3780;BME280;1905;52.482;9.802;2023-09-19T09:54:28;100497.25;;;18.00;70.95
3780;BME280;1905;52.482;9.802;2023-09-19T09:57:04;100480.97;;;18.03;71.03
3780;BME280;1905;52.482;9.802;2023-09-19T09:59:48;100484.59;;;18.02;70.67
3780;BME280;1905;52.482;9.802;2023-09-19T10:02:26;100484.84;;;18.10;70.98
3780;BME280;1905;52.482;9.802;2023-09-19T10:04:56;100483.91;;;18.11;71.34
3780;BME280;1905;52.482;9.802;2023-09-19T10:07:36;100493.63;;;18.12;70.10
3780;BME280;1905;52.482;9.802;2023-09-19T10:10:11;100487.53;;;18.10;69.46
3780;BME280;1905;52.482;9.802;2023-09-19T10:12:48;100489.25;;;18.11;69.85
3780;BME280;1905;52.482;9.802;2023-09-19T10:15:18;100493.66;;;18.23;69.28
3780;BME280;1905;52.482;9.802;2023-09-19T10:17:47;100491.69;;;18.25;70.10
3780;BME280;1905;52.482;9.802;2023-09-19T10:20:16;100491.22;;;18.31;70.34
3780;BME280;1905;52.482;9.802;2023-09-19T10:23:00;100489.13;;;18.35;70.39
3780;BME280;1905;52.482;9.802;2023-09-19T10:25:30;100488.78;;;18.39;70.61
3780;BME280;1905;52.482;9.802;2023-09-19T10:28:00;100495.34;;;18.47;71.29
3780;BME280;1905;52.482;9.802;2023-09-19T10:30:32;100481.88;;;18.48;68.35
3780;BME280;1905;52.482;9.802;2023-09-19T10:33:02;100487.59;;;18.55;68.96
3780;BME280;1905;52.482;9.802;2023-09-19T10:35:32;100492.47;;;18.61;69.24
3780;BME280;1905;52.482;9.802;2023-09-19T10:38:01;100492.09;;;18.54;69.77
3780;BME280;1905;52.482;9.802;2023-09-19T10:40:32;100494.16;;;18.62;68.05
3780;BME280;1905;52.482;9.802;2023-09-19T10:43:02;100499.88;;;18.68;68.92
3780;BME280;1905;52.482;9.802;2023-09-19T10:45:31;100495.13;;;18.72;69.22
3780;BME280;1905;52.482;9.802;2023-09-19T10:47:59;100491.22;;;18.76;67.51
3780;BME280;1905;52.482;9.802;2023-09-19T10:50:31;100483.66;;;18.81;68.68
3780;BME280;1905;52.482;9.802;2023-09-19T10:53:02;100484.03;;;18.87;68.40
3780;BME280;1905;52.482;9.802;2023-09-19T10:55:36;100484.66;;;18.91;67.60
3780;BME280;1905;52.482;9.802;2023-09-19T10:58:05;100488.50;;;18.98;68.10
3780;BME280;1905;52.482;9.802;2023-09-19T11:00:51;100487.06;;;19.05;68.33
3780;BME280;1905;52.482;9.802;2023-09-19T11:03:21;100492.41;;;19.05;68.02
3780;BME280;1905;52.482;9.802;2023-09-19T11:06:05;100504.19;;;19.02;67.42
3780;BME280;1905;52.482;9.802;2023-09-19T11:09:00;100491.88;;;19.11;67.68
3780;BME280;1905;52.482;9.802;2023-09-19T11:11:47;100492.34;;;19.16;67.31
3780;BME280;1905;52.482;9.802;2023-09-19T11:14:38;100484.06;;;19.19;67.55
3780;BME280;1905;52.482;9.802;2023-09-19T11:17:40;100479.78;;;19.28;66.74
3780;BME280;1905;52.482;9.802;2023-09-19T11:20:25;100485.03;;;19.29;67.88
3780;BME280;1905;52.482;9.802;2023-09-19T11:23:18;100483.94;;;19.32;66.20
3780;BME280;1905;52.482;9.802;2023-09-19T11:25:45;100480.13;;;19.34;65.76
3780;BME280;1905;52.482;9.802;2023-09-19T11:28:32;100472.09;;;19.45;67.09
3780;BME280;1905;52.482;9.802;2023-09-19T11:34:46;100465.44;;;19.60;67.05
3780;BME280;1905;52.482;9.802;2023-09-19T11:40:38;100476.59;;;19.66;67.16
3780;BME280;1905;52.482;9.802;2023-09-19T11:43:33;100462.53;;;19.73;67.04
3780;BME280;1905;52.482;9.802;2023-09-19T11:46:06;100463.66;;;19.71;64.62
3780;BME280;1905;52.482;9.802;2023-09-19T11:48:35;100469.63;;;19.74;64.28
3780;BME280;1905;52.482;9.802;2023-09-19T11:51:14;100462.88;;;19.80;64.45
3780;BME280;1905;52.482;9.802;2023-09-19T11:53:46;100472.38;;;19.84;64.45
3780;BME280;1905;52.482;9.802;2023-09-19T11:56:17;100473.34;;;19.83;62.38
3780;BME280;1905;52.482;9.802;2023-09-19T11:58:45;100485.22;;;19.90;62.92
3780;BME280;1905;52.482;9.802;2023-09-19T12:01:24;100478.19;;;19.89;63.38
3780;BME280;1905;52.482;9.802;2023-09-19T12:03:57;100484.97;;;19.93;62.10
3780;BME280;1905;52.482;9.802;2023-09-19T12:06:28;100498.13;;;19.96;61.80
3780;BME280;1905;52.482;9.802;2023-09-19T12:08:56;100480.00;;;20.09;64.60
3780;BME280;1905;52.482;9.802;2023-09-19T12:11:28;100475.19;;;20.03;62.56
3780;BME280;1905;52.482;9.802;2023-09-19T12:13:57;100474.53;;;20.10;62.11
3780;BME280;1905;52.482;9.802;2023-09-19T12:16:27;100480.25;;;20.06;61.22
3780;BME280;1905;52.482;9.802;2023-09-19T12:18:57;100474.38;;;20.12;61.78
3780;BME280;1905;52.482;9.802;2023-09-19T12:21:28;100482.94;;;20.06;62.35
3780;BME280;1905;52.482;9.802;2023-09-19T12:23:59;100475.09;;;20.14;62.43
3780;BME280;1905;52.482;9.802;2023-09-19T12:26:27;100475.56;;;20.19;62.77
3780;BME280;1905;52.482;9.802;2023-09-19T12:28:55;100476.25;;;20.21;62.88
3780;BME280;1905;52.482;9.802;2023-09-19T12:31:23;100479.91;;;20.20;62.28
3780;BME280;1905;52.482;9.802;2023-09-19T12:33:53;100477.75;;;20.14;61.94
3780;BME280;1905;52.482;9.802;2023-09-19T12:36:22;100477.50;;;20.17;62.34
3780;BME280;1905;52.482;9.802;2023-09-19T12:38:57;100484.09;;;20.24;61.39
3780;BME280;1905;52.482;9.802;2023-09-19T12:41:25;100474.06;;;20.26;61.77
3780;BME280;1905;52.482;9.802;2023-09-19T12:43:53;100469.66;;;20.25;61.35
3780;BME280;1905;52.482;9.802;2023-09-19T12:46:21;100466.88;;;20.27;61.54
3780;BME280;1905;52.482;9.802;2023-09-19T12:49:16;100471.22;;;20.28;62.13
3780;BME280;1905;52.482;9.802;2023-09-19T12:51:45;100462.38;;;20.27;61.41
3780;BME280;1905;52.482;9.802;2023-09-19T12:54:15;100469.13;;;20.31;62.29
3780;BME280;1905;52.482;9.802;2023-09-19T12:56:44;100456.16;;;20.36;61.21
3780;BME280;1905;52.482;9.802;2023-09-19T12:59:14;100468.47;;;20.39;61.59
3780;BME280;1905;52.482;9.802;2023-09-19T13:01:43;100452.78;;;20.34;61.58
3780;BME280;1905;52.482;9.802;2023-09-19T13:04:14;100448.00;;;20.38;61.67
3780;BME280;1905;52.482;9.802;2023-09-19T13:06:45;100447.44;;;20.44;62.85
3780;BME280;1905;52.482;9.802;2023-09-19T13:09:16;100459.94;;;20.54;61.50
3780;BME280;1905;52.482;9.802;2023-09-19T13:11:45;100451.41;;;20.49;60.73
3780;BME280;1905;52.482;9.802;2023-09-19T13:14:17;100447.75;;;20.50;62.98
3780;BME280;1905;52.482;9.802;2023-09-19T13:16:55;100463.84;;;20.50;61.30
3780;BME280;1905;52.482;9.802;2023-09-19T13:19:37;100456.78;;;20.49;60.38
3780;BME280;1905;52.482;9.802;2023-09-19T13:22:36;100452.31;;;20.59;60.47
3780;BME280;1905;52.482;9.802;2023-09-19T13:25:07;100434.25;;;20.61;60.64
3780;BME280;1905;52.482;9.802;2023-09-19T13:27:41;100437.34;;;20.66;61.51
3780;BME280;1905;52.482;9.802;2023-09-19T13:30:11;100438.38;;;20.65;60.65
3780;BME280;1905;52.482;9.802;2023-09-19T13:32:39;100420.44;;;20.75;61.83
3780;BME280;1905;52.482;9.802;2023-09-19T13:35:07;100430.16;;;20.76;61.61
3780;BME280;1905;52.482;9.802;2023-09-19T13:37:38;100435.41;;;20.88;61.00